Northern Expedition — CFN5364 — position and weather

sailwx.info

Track history (hours):
 
Tides and Currents Weather Stations Pressure Air Temp Water Temp Dewpoint Dewpoint Depression Visibility Wind Speed Wind Dir Waves Ship Positions

Northern Expedition

Last reported at 2015-Jul-05 04:32 UTC. Time now 2015-Jul-05 06:05 UTC.
Position N 51°09' W 127°50'.

Length 151 m; draft 5.1 m.

Type: Passenger vessel. MMSI: 316014054.

Date/timePositionNaut miles runAvg speedWind from/ knotsBaromVisibWave heightAir tempDewpointWater temp
2015-Jul-05 04:32N 51°09' W 127°50'2120.3
2015-Jul-05 03:31N 51°29' W 127°52'6 0.2
2015-Jul-03 17:32N 51°35' W 127°53'1919.3
2015-Jul-03 16:32N 51°16' W 127°52'1818.8
2015-Jul-03 15:33N 50°58' W 127°45'18 9.0
2015-Jul-03 13:31N 50°44' W 127°27'6 0.8
2015-Jul-03 05:33N 50°50' W 127°28'1818.0
2015-Jul-03 04:33N 51°03' W 127°47'2019.2
2015-Jul-03 03:30N 51°23' W 127°52'4 0.1
2015-Jul-01 17:07N 51°19' W 127°52'1219.3
2015-Jul-01 16:31N 51°07' W 127°50'1819.3
2015-Jul-01 15:34N 50°51' W 127°36'9 1.7
2015-Jul-01 10:03N 50°44' W 127°27'0 0.0
2015-Jul-01 09:09N 50°44' W 127°27'813.6
2015-Jul-01 08:33N 50°51' W 127°31'1918.5
2015-Jul-01 07:33N 51°06' W 127°49'24 0.7
2015-Jun-29 23:33N 51°30' W 127°51'1918.4
2015-Jun-29 22:30N 51°10' W 127°50'1818.6
2015-Jun-29 21:33N 50°54' W 127°39'1310.1
2015-Jun-29 20:16N 50°44' W 127°27'0 0.0
2015-Jun-29 19:33N 50°44' W 127°27'0 0.0
2015-Jun-29 08:22N 50°44' W 127°27'0 0.0
2015-Jun-29 07:25N 50°44' W 127°27'0 0.0
2015-Jun-29 06:21N 50°44' W 127°27'1013.3
2015-Jun-29 05:33N 50°53' W 127°36'2019.7
2015-Jun-29 04:32N 51°10' W 127°51'2120.3
2015-Jun-29 03:32N 51°31' W 127°52'3 0.1
2015-Jun-27 17:26N 51°34' W 127°52'2219.4
2015-Jun-27 16:17N 51°12' W 127°52'1419.7
2015-Jun-27 15:33N 50°58' W 127°44'1817.6
2015-Jun-27 14:33N 50°44' W 127°28'0 0.3
2015-Jun-27 13:13N 50°44' W 127°27'0 0.0
2015-Jun-27 10:28N 50°44' W 127°27'0 0.0
2015-Jun-27 09:32N 50°44' W 127°27'0 0.0
2015-Jun-27 08:26N 50°44' W 127°27'0 0.0
2015-Jun-27 07:26N 50°44' W 127°27'0 0.0
2015-Jun-27 06:24N 50°44' W 127°27'1213.9
2015-Jun-27 05:33N 50°53' W 127°38'1919.4
2015-Jun-27 04:33N 51°11' W 127°51'2120.0
2015-Jun-27 03:31N 51°32' W 127°52'1 0.0
2015-Jun-25 17:26N 51°31' W 127°51'1719.6
2015-Jun-25 16:33N 51°14' W 127°52'2019.9
2015-Jun-25 15:33N 50°55' W 127°40'1414.1
2015-Jun-25 14:33N 50°44' W 127°27'0 0.0
2015-Jun-25 10:33N 50°44' W 127°27'0 0.0
2015-Jun-25 07:17N 50°44' W 127°27'0 0.0
2015-Jun-25 06:27N 50°44' W 127°27'1112.7
2015-Jun-25 05:33N 50°53' W 127°37'1818.1
2015-Jun-25 04:33N 51°09' W 127°50'  
Track history (hours):
 
Tides and Currents Weather Stations Pressure Air Temp Water Temp Dewpoint Dewpoint Depression Visibility Wind Speed Wind Dir Waves Ship Positions

Northern Expedition

Last reported at 2015-Jul-05 04:32 UTC. Time now 2015-Jul-05 06:05 UTC.
Position N 51°09' W 127°50'.

Length 151 m; draft 5.1 m.

Type: Passenger vessel. MMSI: 316014054.

Date/timePositionNaut miles runAvg speedWind from/ knotsBaromVisibWave heightAir tempDewpointWater temp
2015-Jul-05 04:32N 51°09' W 127°50'2120.3
2015-Jul-05 03:31N 51°29' W 127°52'6 0.2
2015-Jul-03 17:32N 51°35' W 127°53'1919.3
2015-Jul-03 16:32N 51°16' W 127°52'1818.8
2015-Jul-03 15:33N 50°58' W 127°45'18 9.0
2015-Jul-03 13:31N 50°44' W 127°27'6 0.8
2015-Jul-03 05:33N 50°50' W 127°28'1818.0
2015-Jul-03 04:33N 51°03' W 127°47'2019.2
2015-Jul-03 03:30N 51°23' W 127°52'4 0.1
2015-Jul-01 17:07N 51°19' W 127°52'1219.3
2015-Jul-01 16:31N 51°07' W 127°50'1819.3
2015-Jul-01 15:34N 50°51' W 127°36'9 1.7
2015-Jul-01 10:03N 50°44' W 127°27'0 0.0
2015-Jul-01 09:09N 50°44' W 127°27'813.6
2015-Jul-01 08:33N 50°51' W 127°31'1918.5
2015-Jul-01 07:33N 51°06' W 127°49'24 0.7
2015-Jun-29 23:33N 51°30' W 127°51'1918.4
2015-Jun-29 22:30N 51°10' W 127°50'1818.6
2015-Jun-29 21:33N 50°54' W 127°39'1310.1
2015-Jun-29 20:16N 50°44' W 127°27'0 0.0
2015-Jun-29 19:33N 50°44' W 127°27'0 0.0
2015-Jun-29 08:22N 50°44' W 127°27'0 0.0
2015-Jun-29 07:25N 50°44' W 127°27'0 0.0
2015-Jun-29 06:21N 50°44' W 127°27'1013.3
2015-Jun-29 05:33N 50°53' W 127°36'2019.7
2015-Jun-29 04:32N 51°10' W 127°51'2120.3
2015-Jun-29 03:32N 51°31' W 127°52'3 0.1
2015-Jun-27 17:26N 51°34' W 127°52'2219.4
2015-Jun-27 16:17N 51°12' W 127°52'1419.7
2015-Jun-27 15:33N 50°58' W 127°44'1817.6
2015-Jun-27 14:33N 50°44' W 127°28'0 0.3
2015-Jun-27 13:13N 50°44' W 127°27'0 0.0
2015-Jun-27 10:28N 50°44' W 127°27'0 0.0
2015-Jun-27 09:32N 50°44' W 127°27'0 0.0
2015-Jun-27 08:26N 50°44' W 127°27'0 0.0
2015-Jun-27 07:26N 50°44' W 127°27'0 0.0
2015-Jun-27 06:24N 50°44' W 127°27'1213.9
2015-Jun-27 05:33N 50°53' W 127°38'1919.4
2015-Jun-27 04:33N 51°11' W 127°51'2120.0
2015-Jun-27 03:31N 51°32' W 127°52'1 0.0
2015-Jun-25 17:26N 51°31' W 127°51'1719.6
2015-Jun-25 16:33N 51°14' W 127°52'2019.9
2015-Jun-25 15:33N 50°55' W 127°40'1414.1
2015-Jun-25 14:33N 50°44' W 127°27'0 0.0
2015-Jun-25 10:33N 50°44' W 127°27'0 0.0
2015-Jun-25 07:17N 50°44' W 127°27'0 0.0
2015-Jun-25 06:27N 50°44' W 127°27'1112.7
2015-Jun-25 05:33N 50°53' W 127°37'1818.1
2015-Jun-25 04:33N 51°09' W 127°50'  

Dump ship's entire track history